sensor_id;sensor_type;location;lat;lon;timestamp;pressure;altitude;pressure_sealevel;temperature;humidity
24610;BME280;12758;47.890;11.694;2022-08-14T00:00:04;93635.75;;;20.97;48.15
24610;BME280;12758;47.890;11.694;2022-08-14T00:02:30;93638.91;;;20.91;47.91
24610;BME280;12758;47.890;11.694;2022-08-14T00:04:56;93628.63;;;20.96;47.87
24610;BME280;12758;47.890;11.694;2022-08-14T00:07:22;93627.06;;;20.94;47.91
24610;BME280;12758;47.890;11.694;2022-08-14T00:09:48;93624.72;;;20.93;47.79
24610;BME280;12758;47.890;11.694;2022-08-14T00:12:14;93611.69;;;20.97;47.88
24610;BME280;12758;47.890;11.694;2022-08-14T00:14:40;93616.06;;;20.91;47.90
24610;BME280;12758;47.890;11.694;2022-08-14T00:17:07;93616.06;;;20.87;48.02
24610;BME280;12758;47.890;11.694;2022-08-14T00:19:33;93617.66;;;20.85;48.03
24610;BME280;12758;47.890;11.694;2022-08-14T00:21:59;93614.50;;;20.83;48.20
24610;BME280;12758;47.890;11.694;2022-08-14T00:24:25;93607.81;;;20.80;48.30
24610;BME280;12758;47.890;11.694;2022-08-14T00:26:51;93613.72;;;20.79;48.20
24610;BME280;12758;47.890;11.694;2022-08-14T00:29:17;93609.00;;;20.76;48.25
24610;BME280;12758;47.890;11.694;2022-08-14T00:31:44;93615.72;;;20.71;48.17
24610;BME280;12758;47.890;11.694;2022-08-14T00:34:10;93609.81;;;20.69;48.11
24610;BME280;12758;47.890;11.694;2022-08-14T00:36:36;93609.03;;;20.65;48.30
24610;BME280;12758;47.890;11.694;2022-08-14T00:39:03;93608.25;;;20.61;48.27
24610;BME280;12758;47.890;11.694;2022-08-14T00:41:30;93606.69;;;20.60;48.44
24610;BME280;12758;47.890;11.694;2022-08-14T00:43:56;93601.16;;;20.60;48.46
24610;BME280;12758;47.890;11.694;2022-08-14T00:46:22;93592.53;;;20.58;48.40
24610;BME280;12758;47.890;11.694;2022-08-14T00:48:48;93592.53;;;20.58;48.43
24610;BME280;12758;47.890;11.694;2022-08-14T00:51:15;93590.16;;;20.56;48.34
24610;BME280;12758;47.890;11.694;2022-08-14T00:53:41;93579.91;;;20.57;48.27
24610;BME280;12758;47.890;11.694;2022-08-14T00:56:08;93575.97;;;20.58;48.19
24610;BME280;12758;47.890;11.694;2022-08-14T00:58:34;93580.69;;;20.54;48.33
24610;BME280;12758;47.890;11.694;2022-08-14T01:01:03;93583.06;;;20.52;48.30
24610;BME280;12758;47.890;11.694;2022-08-14T01:03:30;93580.31;;;20.52;48.37
24610;BME280;12758;47.890;11.694;2022-08-14T01:05:57;93577.56;;;20.52;48.24
24610;BME280;12758;47.890;11.694;2022-08-14T01:08:25;93581.44;;;20.51;48.11
24610;BME280;12758;47.890;11.694;2022-08-14T01:10:53;93579.88;;;20.50;47.89
24610;BME280;12758;47.890;11.694;2022-08-14T01:13:21;93574.38;;;20.46;48.25
24610;BME280;12758;47.890;11.694;2022-08-14T01:15:51;93579.50;;;20.47;48.23
24610;BME280;12758;47.890;11.694;2022-08-14T01:18:18;93567.28;;;20.41;48.31
24610;BME280;12758;47.890;11.694;2022-08-14T01:21:03;93570.47;;;20.40;48.30
24610;BME280;12758;47.890;11.694;2022-08-14T01:23:34;93562.56;;;20.38;48.40
24610;BME280;12758;47.890;11.694;2022-08-14T01:26:01;93560.63;;;20.39;48.12
24610;BME280;12758;47.890;11.694;2022-08-14T01:28:28;93562.19;;;20.36;48.47
24610;BME280;12758;47.890;11.694;2022-08-14T01:30:56;93562.59;;;20.35;48.43
24610;BME280;12758;47.890;11.694;2022-08-14T01:33:22;93561.81;;;20.34;48.03
24610;BME280;12758;47.890;11.694;2022-08-14T01:35:53;93550.00;;;20.30;48.44
24610;BME280;12758;47.890;11.694;2022-08-14T01:38:19;93556.72;;;20.29;48.26
24610;BME280;12758;47.890;11.694;2022-08-14T01:40:46;93551.59;;;20.24;48.23
24610;BME280;12758;47.890;11.694;2022-08-14T01:43:13;93539.00;;;20.23;48.54
24610;BME280;12758;47.890;11.694;2022-08-14T01:45:42;93542.13;;;20.21;48.60
24610;BME280;12758;47.890;11.694;2022-08-14T01:48:09;93535.84;;;20.21;48.44
24610;BME280;12758;47.890;11.694;2022-08-14T01:50:35;93533.50;;;20.23;48.40
24610;BME280;12758;47.890;11.694;2022-08-14T01:53:01;93529.53;;;20.24;48.32
24610;BME280;12758;47.890;11.694;2022-08-14T01:55:28;93528.38;;;20.18;48.58
24610;BME280;12758;47.890;11.694;2022-08-14T01:57:57;93521.66;;;20.19;48.34
24610;BME280;12758;47.890;11.694;2022-08-14T02:00:23;93524.06;;;20.17;48.45
24610;BME280;12758;47.890;11.694;2022-08-14T02:02:50;93511.44;;;20.16;48.44
24610;BME280;12758;47.890;11.694;2022-08-14T02:05:16;93509.50;;;20.13;48.60
24610;BME280;12758;47.890;11.694;2022-08-14T02:07:42;93507.53;;;20.10;48.47
24610;BME280;12758;47.890;11.694;2022-08-14T02:10:09;93507.91;;;20.08;48.61
24610;BME280;12758;47.890;11.694;2022-08-14T02:12:35;93513.06;;;20.10;48.59
24610;BME280;12758;47.890;11.694;2022-08-14T02:15:02;93512.25;;;20.06;48.51
24610;BME280;12758;47.890;11.694;2022-08-14T02:17:28;93506.75;;;20.06;48.66
24610;BME280;12758;47.890;11.694;2022-08-14T02:19:57;93510.69;;;20.01;48.59
24610;BME280;12758;47.890;11.694;2022-08-14T02:22:23;93507.94;;;19.97;48.63
24610;BME280;12758;47.890;11.694;2022-08-14T02:24:50;93498.09;;;19.96;48.54
24610;BME280;12758;47.890;11.694;2022-08-14T02:27:16;93498.09;;;19.96;48.60
24610;BME280;12758;47.890;11.694;2022-08-14T02:29:44;93491.03;;;19.95;48.95
24610;BME280;12758;47.890;11.694;2022-08-14T02:32:11;93487.47;;;19.95;48.71
24610;BME280;12758;47.890;11.694;2022-08-14T02:34:37;93479.22;;;19.91;48.72
24610;BME280;12758;47.890;11.694;2022-08-14T02:37:04;93471.34;;;19.93;48.80
24610;BME280;12758;47.890;11.694;2022-08-14T02:39:32;93478.44;;;19.94;48.64
24610;BME280;12758;47.890;11.694;2022-08-14T02:41:59;93469.00;;;19.92;48.55
24610;BME280;12758;47.890;11.694;2022-08-14T02:44:25;93476.06;;;19.89;48.78
24610;BME280;12758;47.890;11.694;2022-08-14T02:46:52;93466.63;;;19.87;48.78
24610;BME280;12758;47.890;11.694;2022-08-14T02:49:22;93465.84;;;19.83;48.83
24610;BME280;12758;47.890;11.694;2022-08-14T02:51:51;93464.28;;;19.82;48.81
24610;BME280;12758;47.890;11.694;2022-08-14T02:54:17;93465.06;;;19.82;48.92
24610;BME280;12758;47.890;11.694;2022-08-14T02:56:43;93448.94;;;19.81;48.72
24610;BME280;12758;47.890;11.694;2022-08-14T02:59:09;93459.56;;;19.78;48.68
24610;BME280;12758;47.890;11.694;2022-08-14T03:01:36;93455.63;;;19.76;48.72
24610;BME280;12758;47.890;11.694;2022-08-14T03:04:03;93450.91;;;19.73;48.81
24610;BME280;12758;47.890;11.694;2022-08-14T03:06:31;93450.91;;;19.73;48.92
24610;BME280;12758;47.890;11.694;2022-08-14T03:08:57;93443.06;;;19.71;49.12
24610;BME280;12758;47.890;11.694;2022-08-14T03:11:23;93453.28;;;19.71;48.82
24610;BME280;12758;47.890;11.694;2022-08-14T03:13:51;93446.22;;;19.70;48.93
24610;BME280;12758;47.890;11.694;2022-08-14T03:16:19;93454.09;;;19.68;48.87
24610;BME280;12758;47.890;11.694;2022-08-14T03:18:46;93445.44;;;19.66;48.78
24610;BME280;12758;47.890;11.694;2022-08-14T03:21:15;93436.78;;;19.64;48.97
24610;BME280;12758;47.890;11.694;2022-08-14T03:23:43;93439.13;;;19.62;48.99
24610;BME280;12758;47.890;11.694;2022-08-14T03:26:11;93434.78;;;19.61;49.15
24610;BME280;12758;47.890;11.694;2022-08-14T03:28:38;93435.97;;;19.60;49.04
24610;BME280;12758;47.890;11.694;2022-08-14T03:31:06;93434.41;;;19.59;49.02
24610;BME280;12758;47.890;11.694;2022-08-14T03:33:33;93435.97;;;19.52;49.28
24610;BME280;12758;47.890;11.694;2022-08-14T03:36:01;93438.75;;;19.52;49.37
24610;BME280;12758;47.890;11.694;2022-08-14T03:38:29;93430.47;;;19.52;49.20
24610;BME280;12758;47.890;11.694;2022-08-14T03:40:56;93420.25;;;19.53;49.25
24610;BME280;12758;47.890;11.694;2022-08-14T03:43:22;93423.41;;;19.55;48.98
24610;BME280;12758;47.890;11.694;2022-08-14T03:45:48;93424.97;;;19.52;49.16
24610;BME280;12758;47.890;11.694;2022-08-14T03:48:16;93425.75;;;19.49;49.31
24610;BME280;12758;47.890;11.694;2022-08-14T03:50:44;93429.31;;;19.46;49.43
24610;BME280;12758;47.890;11.694;2022-08-14T03:53:10;93433.22;;;19.45;49.39
24610;BME280;12758;47.890;11.694;2022-08-14T03:55:37;93438.34;;;19.43;49.42
24610;BME280;12758;47.890;11.694;2022-08-14T03:58:05;93434.41;;;19.41;49.44
24610;BME280;12758;47.890;11.694;2022-08-14T04:00:31;93429.69;;;19.38;49.40
24610;BME280;12758;47.890;11.694;2022-08-14T04:02:57;93430.09;;;19.33;49.74
24610;BME280;12758;47.890;11.694;2022-08-14T04:05:24;93421.03;;;19.32;49.78
24610;BME280;12758;47.890;11.694;2022-08-14T04:07:49;93413.59;;;19.36;49.50
24610;BME280;12758;47.890;11.694;2022-08-14T04:10:16;93419.47;;;19.35;49.76
24610;BME280;12758;47.890;11.694;2022-08-14T04:12:42;93415.53;;;19.32;49.87
24610;BME280;12758;47.890;11.694;2022-08-14T04:15:09;93418.28;;;19.28;49.85
24610;BME280;12758;47.890;11.694;2022-08-14T04:17:35;93424.97;;;19.27;49.88
24610;BME280;12758;47.890;11.694;2022-08-14T04:20:02;93426.56;;;19.21;50.17
24610;BME280;12758;47.890;11.694;2022-08-14T04:22:30;93429.72;;;19.20;49.87
24610;BME280;12758;47.890;11.694;2022-08-14T04:24:57;93430.50;;;19.17;50.10
24610;BME280;12758;47.890;11.694;2022-08-14T04:27:24;93430.50;;;19.17;50.14
24610;BME280;12758;47.890;11.694;2022-08-14T04:29:51;93428.91;;;19.16;50.19
24610;BME280;12758;47.890;11.694;2022-08-14T04:32:19;93421.06;;;19.18;50.20
24610;BME280;12758;47.890;11.694;2022-08-14T04:34:46;93410.84;;;19.15;50.32
24610;BME280;12758;47.890;11.694;2022-08-14T04:37:12;93406.13;;;19.12;50.10
24610;BME280;12758;47.890;11.694;2022-08-14T04:39:57;93402.97;;;19.09;50.47
24610;BME280;12758;47.890;11.694;2022-08-14T04:42:41;93401.41;;;19.16;50.00
24610;BME280;12758;47.890;11.694;2022-08-14T04:45:26;93398.28;;;19.14;50.10
24610;BME280;12758;47.890;11.694;2022-08-14T04:47:57;93395.91;;;19.08;50.37
24610;BME280;12758;47.890;11.694;2022-08-14T04:50:40;93399.06;;;19.11;50.16
24610;BME280;12758;47.890;11.694;2022-08-14T04:53:07;93396.69;;;19.09;50.25
24610;BME280;12758;47.890;11.694;2022-08-14T04:55:38;93399.84;;;19.11;50.13
24610;BME280;12758;47.890;11.694;2022-08-14T04:58:04;93395.13;;;19.08;50.19
24610;BME280;12758;47.890;11.694;2022-08-14T05:00:30;93402.19;;;19.05;50.23
24610;BME280;12758;47.890;11.694;2022-08-14T05:02:57;93395.91;;;19.08;50.27
24610;BME280;12758;47.890;11.694;2022-08-14T05:05:23;93402.97;;;19.09;50.16
24610;BME280;12758;47.890;11.694;2022-08-14T05:07:50;93390.41;;;19.08;50.23
24610;BME280;12758;47.890;11.694;2022-08-14T05:10:16;93382.53;;;19.11;50.15
24610;BME280;12758;47.890;11.694;2022-08-14T05:12:50;93371.53;;;19.11;50.20
24610;BME280;12758;47.890;11.694;2022-08-14T05:15:17;93378.59;;;19.12;50.10
24610;BME280;12758;47.890;11.694;2022-08-14T05:17:43;93375.44;;;19.09;50.27
24610;BME280;12758;47.890;11.694;2022-08-14T05:20:10;93365.63;;;19.08;50.10
24610;BME280;12758;47.890;11.694;2022-08-14T05:22:36;93373.09;;;19.08;50.32
24610;BME280;12758;47.890;11.694;2022-08-14T05:25:03;93381.75;;;19.10;50.48
24610;BME280;12758;47.890;11.694;2022-08-14T05:27:29;93367.97;;;19.06;50.43
24610;BME280;12758;47.890;11.694;2022-08-14T05:29:55;93371.13;;;19.08;50.41
24610;BME280;12758;47.890;11.694;2022-08-14T05:32:23;93371.13;;;19.08;50.60
24610;BME280;12758;47.890;11.694;2022-08-14T05:34:49;93368.38;;;19.08;50.24
24610;BME280;12758;47.890;11.694;2022-08-14T05:37:16;93364.84;;;19.08;50.63
24610;BME280;12758;47.890;11.694;2022-08-14T05:39:43;93367.59;;;18.87;53.72
24610;BME280;12758;47.890;11.694;2022-08-14T05:42:09;93359.72;;;18.74;52.66
24610;BME280;12758;47.890;11.694;2022-08-14T05:44:35;93369.56;;;18.86;51.54
24610;BME280;12758;47.890;11.694;2022-08-14T05:47:01;93368.00;;;18.99;51.29
24610;BME280;12758;47.890;11.694;2022-08-14T05:49:27;93364.47;;;19.02;51.64
24610;BME280;12758;47.890;11.694;2022-08-14T05:51:53;93369.19;;;19.05;51.03
24610;BME280;12758;47.890;11.694;2022-08-14T05:54:19;93375.47;;;19.02;51.34
24610;BME280;12758;47.890;11.694;2022-08-14T05:56:45;93369.16;;;19.09;51.48
24610;BME280;12758;47.890;11.694;2022-08-14T05:59:12;93381.38;;;18.97;51.62
24610;BME280;12758;47.890;11.694;2022-08-14T06:01:38;93377.81;;;19.11;51.37
24610;BME280;12758;47.890;11.694;2022-08-14T06:04:04;93368.38;;;19.08;51.65
24610;BME280;12758;47.890;11.694;2022-08-14T06:06:30;93378.63;;;18.97;53.27
24610;BME280;12758;47.890;11.694;2022-08-14T06:08:56;93371.53;;;18.85;55.01
24610;BME280;12758;47.890;11.694;2022-08-14T06:11:23;93375.84;;;18.79;54.40
24610;BME280;12758;47.890;11.694;2022-08-14T06:13:49;93380.97;;;18.92;52.92
24610;BME280;12758;47.890;11.694;2022-08-14T06:16:16;93377.81;;;18.93;53.26
24610;BME280;12758;47.890;11.694;2022-08-14T06:18:42;93378.53;;;18.61;57.16
24610;BME280;12758;47.890;11.694;2022-08-14T06:21:10;93376.25;;;18.81;53.67
24610;BME280;12758;47.890;11.694;2022-08-14T06:23:36;93378.16;;;18.67;55.10
24610;BME280;12758;47.890;11.694;2022-08-14T06:26:02;93384.09;;;18.76;55.34
24610;BME280;12758;47.890;11.694;2022-08-14T06:28:28;93376.19;;;18.71;56.54
24610;BME280;12758;47.890;11.694;2022-08-14T06:30:54;93373.09;;;18.76;56.36
24610;BME280;12758;47.890;11.694;2022-08-14T06:33:21;93385.69;;;19.05;53.28
24610;BME280;12758;47.890;11.694;2022-08-14T06:35:47;93388.81;;;19.29;52.47
24610;BME280;12758;47.890;11.694;2022-08-14T06:38:15;93391.16;;;19.41;52.01
24610;BME280;12758;47.890;11.694;2022-08-14T06:40:41;93390.34;;;19.51;55.56
24610;BME280;12758;47.890;11.694;2022-08-14T06:43:09;93387.25;;;19.21;56.08
24610;BME280;12758;47.890;11.694;2022-08-14T06:45:38;93386.47;;;19.02;56.78
24610;BME280;12758;47.890;11.694;2022-08-14T06:48:11;93379.38;;;19.16;56.80
24610;BME280;12758;47.890;11.694;2022-08-14T06:50:38;93376.22;;;19.31;52.91
24610;BME280;12758;47.890;11.694;2022-08-14T06:53:04;93380.94;;;19.49;52.66
24610;BME280;12758;47.890;11.694;2022-08-14T06:55:31;93367.56;;;19.65;52.74
24610;BME280;12758;47.890;11.694;2022-08-14T06:57:57;93375.38;;;19.63;52.26
24610;BME280;12758;47.890;11.694;2022-08-14T07:00:25;93367.50;;;19.76;52.67
24610;BME280;12758;47.890;11.694;2022-08-14T07:02:52;93374.53;;;19.95;51.80
24610;BME280;12758;47.890;11.694;2022-08-14T07:05:37;93372.97;;;19.87;52.66
24610;BME280;12758;47.890;11.694;2022-08-14T07:08:13;93369.75;;;20.10;51.51
24610;BME280;12758;47.890;11.694;2022-08-14T07:10:41;93357.94;;;20.13;50.93
24610;BME280;12758;47.890;11.694;2022-08-14T07:13:09;93353.25;;;19.99;53.10
24610;BME280;12758;47.890;11.694;2022-08-14T07:15:35;93357.22;;;19.94;54.36
24610;BME280;12758;47.890;11.694;2022-08-14T07:18:02;93354.84;;;19.96;52.51
24610;BME280;12758;47.890;11.694;2022-08-14T07:20:29;93352.88;;;19.97;55.02
24610;BME280;12758;47.890;11.694;2022-08-14T07:22:56;93350.53;;;19.95;54.62
24610;BME280;12758;47.890;11.694;2022-08-14T07:25:23;93350.94;;;19.87;53.17
24610;BME280;12758;47.890;11.694;2022-08-14T07:27:49;93348.66;;;19.67;57.85
24610;BME280;12758;47.890;11.694;2022-08-14T07:30:15;93339.22;;;19.65;58.84
24610;BME280;12758;47.890;11.694;2022-08-14T07:32:42;93336.06;;;19.48;59.39
24610;BME280;12758;47.890;11.694;2022-08-14T07:35:09;93329.72;;;19.87;53.38
24610;BME280;12758;47.890;11.694;2022-08-14T07:37:35;93326.84;;;20.05;54.39
24610;BME280;12758;47.890;11.694;2022-08-14T07:40:03;93326.38;;;20.21;51.64
24610;BME280;12758;47.890;11.694;2022-08-14T07:42:30;93326.00;;;20.15;55.55
24610;BME280;12758;47.890;11.694;2022-08-14T07:44:57;93317.72;;;20.19;52.99
24610;BME280;12758;47.890;11.694;2022-08-14T07:47:23;93314.78;;;20.51;51.75
24610;BME280;12758;47.890;11.694;2022-08-14T07:49:53;93317.56;;;20.55;51.29
24610;BME280;12758;47.890;11.694;2022-08-14T07:52:23;93313.19;;;20.57;51.32
24610;BME280;12758;47.890;11.694;2022-08-14T07:54:49;93309.22;;;20.62;51.46
24610;BME280;12758;47.890;11.694;2022-08-14T07:57:15;93320.22;;;20.65;51.20
24610;BME280;12758;47.890;11.694;2022-08-14T07:59:42;93314.66;;;20.73;50.92
24610;BME280;12758;47.890;11.694;2022-08-14T08:02:09;93324.47;;;20.74;50.75
24610;BME280;12758;47.890;11.694;2022-08-14T08:04:36;93315.84;;;20.72;50.71
24610;BME280;12758;47.890;11.694;2022-08-14T08:07:06;93322.16;;;20.72;50.57
24610;BME280;12758;47.890;11.694;2022-08-14T08:09:33;93316.72;;;20.61;51.13
24610;BME280;12758;47.890;11.694;2022-08-14T08:12:01;93318.25;;;20.66;50.57
24610;BME280;12758;47.890;11.694;2022-08-14T08:14:27;93314.25;;;20.74;50.11
24610;BME280;12758;47.890;11.694;2022-08-14T08:16:55;93311.78;;;20.83;49.84
24610;BME280;12758;47.890;11.694;2022-08-14T08:19:21;93308.78;;;20.67;50.59
24610;BME280;12758;47.890;11.694;2022-08-14T08:21:49;93312.75;;;20.62;51.24
24610;BME280;12758;47.890;11.694;2022-08-14T08:24:15;93314.97;;;20.82;50.67
24610;BME280;12758;47.890;11.694;2022-08-14T08:26:42;93314.94;;;20.85;50.52
24610;BME280;12758;47.890;11.694;2022-08-14T08:29:08;93320.53;;;20.78;50.52
24610;BME280;12758;47.890;11.694;2022-08-14T08:31:45;93324.16;;;20.68;51.03
24610;BME280;12758;47.890;11.694;2022-08-14T08:34:11;93320.53;;;20.78;50.68
24610;BME280;12758;47.890;11.694;2022-08-14T08:36:39;93332.22;;;20.97;50.06
24610;BME280;12758;47.890;11.694;2022-08-14T08:39:06;93330.75;;;20.81;50.81
24610;BME280;12758;47.890;11.694;2022-08-14T08:41:41;93339.03;;;20.81;50.56
24610;BME280;12758;47.890;11.694;2022-08-14T08:44:08;93329.19;;;20.80;50.43
24610;BME280;12758;47.890;11.694;2022-08-14T08:46:34;93339.38;;;20.87;50.58
24610;BME280;12758;47.890;11.694;2022-08-14T08:49:00;93331.38;;;21.03;50.03
24610;BME280;12758;47.890;11.694;2022-08-14T08:51:28;93329.88;;;20.91;49.90
24610;BME280;12758;47.890;11.694;2022-08-14T08:53:56;93337.66;;;21.04;49.93
24610;BME280;12758;47.890;11.694;2022-08-14T08:56:37;93332.97;;;21.01;49.61
24610;BME280;12758;47.890;11.694;2022-08-14T08:59:18;93331.41;;;21.00;49.63
24610;BME280;12758;47.890;11.694;2022-08-14T09:01:49;93316.38;;;21.04;49.88
24610;BME280;12758;47.890;11.694;2022-08-14T09:04:16;93324.75;;;20.93;50.03
24610;BME280;12758;47.890;11.694;2022-08-14T09:06:43;93321.84;;;21.08;49.84
24610;BME280;12758;47.890;11.694;2022-08-14T09:09:16;93316.38;;;21.04;50.02
24610;BME280;12758;47.890;11.694;2022-08-14T09:11:43;93321.75;;;21.22;49.44
24610;BME280;12758;47.890;11.694;2022-08-14T09:14:09;93326.44;;;21.25;48.91
24610;BME280;12758;47.890;11.694;2022-08-14T09:16:36;93314.63;;;21.21;49.79
24610;BME280;12758;47.890;11.694;2022-08-14T09:19:02;93314.59;;;21.25;48.54
24610;BME280;12758;47.890;11.694;2022-08-14T09:21:28;93302.75;;;21.24;48.99
24610;BME280;12758;47.890;11.694;2022-08-14T09:23:55;93296.47;;;21.24;49.22
24610;BME280;12758;47.890;11.694;2022-08-14T09:26:21;93301.56;;;21.29;49.29
24610;BME280;12758;47.890;11.694;2022-08-14T09:28:47;93304.28;;;21.32;48.36
24610;BME280;12758;47.890;11.694;2022-08-14T09:31:13;93302.66;;;21.38;48.54
24610;BME280;12758;47.890;11.694;2022-08-14T09:33:50;93309.38;;;21.37;48.39
24610;BME280;12758;47.890;11.694;2022-08-14T09:36:36;93314.66;;;21.59;47.95
24610;BME280;12758;47.890;11.694;2022-08-14T09:39:09;93312.00;;;21.52;48.22
24610;BME280;12758;47.890;11.694;2022-08-14T09:41:46;93304.88;;;21.51;48.57
24610;BME280;12758;47.890;11.694;2022-08-14T09:44:27;93306.00;;;21.57;48.43
24610;BME280;12758;47.890;11.694;2022-08-14T09:46:55;93307.88;;;21.67;48.15
24610;BME280;12758;47.890;11.694;2022-08-14T09:49:29;93304.00;;;21.61;48.00
24610;BME280;12758;47.890;11.694;2022-08-14T09:52:02;93314.22;;;21.64;48.02
24610;BME280;12758;47.890;11.694;2022-08-14T09:54:35;93305.44;;;21.73;47.65
24610;BME280;12758;47.890;11.694;2022-08-14T09:57:03;93305.13;;;21.67;47.71
24610;BME280;12758;47.890;11.694;2022-08-14T09:59:39;93308.97;;;21.73;47.50
24610;BME280;12758;47.890;11.694;2022-08-14T10:02:18;93306.16;;;21.80;46.30
24610;BME280;12758;47.890;11.694;2022-08-14T10:04:44;93306.97;;;21.77;46.86
24610;BME280;12758;47.890;11.694;2022-08-14T10:07:11;93292.72;;;21.79;46.85
24610;BME280;12758;47.890;11.694;2022-08-14T10:09:46;93295.44;;;21.82;46.44
24610;BME280;12758;47.890;11.694;2022-08-14T10:12:13;93285.50;;;21.89;45.85
24610;BME280;12758;47.890;11.694;2022-08-14T10:14:39;93293.50;;;21.79;46.97
24610;BME280;12758;47.890;11.694;2022-08-14T10:17:05;93286.34;;;21.85;46.93
24610;BME280;12758;47.890;11.694;2022-08-14T10:19:32;93282.38;;;21.86;46.90
24610;BME280;12758;47.890;11.694;2022-08-14T10:22:01;93287.44;;;21.92;46.39
24610;BME280;12758;47.890;11.694;2022-08-14T10:24:29;93285.09;;;21.90;46.51
24610;BME280;12758;47.890;11.694;2022-08-14T10:26:57;93285.06;;;21.94;46.77
24610;BME280;12758;47.890;11.694;2022-08-14T10:29:30;93273.81;;;22.08;45.46
24610;BME280;12758;47.890;11.694;2022-08-14T10:31:57;93276.94;;;22.10;45.13
24610;BME280;12758;47.890;11.694;2022-08-14T10:34:30;93274.91;;;22.14;45.08
24610;BME280;12758;47.890;11.694;2022-08-14T10:37:02;93267.81;;;22.13;44.62
24610;BME280;12758;47.890;11.694;2022-08-14T10:39:28;93262.09;;;22.27;43.79
24610;BME280;12758;47.890;11.694;2022-08-14T10:42:00;93267.03;;;22.16;45.00
24610;BME280;12758;47.890;11.694;2022-08-14T10:44:32;93260.66;;;22.19;44.62
24610;BME280;12758;47.890;11.694;2022-08-14T10:47:00;93254.44;;;22.08;44.94
24610;BME280;12758;47.890;11.694;2022-08-14T10:49:30;93258.31;;;22.14;44.94
24610;BME280;12758;47.890;11.694;2022-08-14T10:51:58;93258.72;;;22.16;45.10
24610;BME280;12758;47.890;11.694;2022-08-14T10:54:30;93250.81;;;22.15;45.07
24610;BME280;12758;47.890;11.694;2022-08-14T10:56:58;93255.19;;;22.16;45.24
24610;BME280;12758;47.890;11.694;2022-08-14T10:59:24;93241.63;;;22.25;45.00
24610;BME280;12758;47.890;11.694;2022-08-14T11:01:50;93236.13;;;22.21;45.02
24610;BME280;12758;47.890;11.694;2022-08-14T11:04:20;93230.06;;;22.30;45.13
24610;BME280;12758;47.890;11.694;2022-08-14T11:06:53;93233.63;;;22.30;44.94
24610;BME280;12758;47.890;11.694;2022-08-14T11:09:19;93225.81;;;22.25;45.37
24610;BME280;12758;47.890;11.694;2022-08-14T11:11:45;93226.06;;;22.35;45.02
24610;BME280;12758;47.890;11.694;2022-08-14T11:14:15;93222.19;;;22.55;44.20
24610;BME280;12758;47.890;11.694;2022-08-14T11:16:41;93207.44;;;22.39;45.08
24610;BME280;12758;47.890;11.694;2022-08-14T11:19:08;93215.34;;;22.37;45.29
24610;BME280;12758;47.890;11.694;2022-08-14T11:21:36;93211.41;;;22.38;45.45
24610;BME280;12758;47.890;11.694;2022-08-14T11:24:05;93207.31;;;22.46;45.34
24610;BME280;12758;47.890;11.694;2022-08-14T11:26:37;93212.91;;;22.42;45.26
24610;BME280;12758;47.890;11.694;2022-08-14T11:29:05;93205.81;;;22.41;45.54
24610;BME280;12758;47.890;11.694;2022-08-14T11:31:32;93201.78;;;22.46;45.68
24610;BME280;12758;47.890;11.694;2022-08-14T11:34:00;93201.28;;;23.61;40.61
24610;BME280;12758;47.890;11.694;2022-08-14T11:36:27;93206.13;;;22.70;44.13
24610;BME280;12758;47.890;11.694;2022-08-14T11:38:53;93192.41;;;22.87;42.71
24610;BME280;12758;47.890;11.694;2022-08-14T11:41:20;93194.94;;;22.77;45.36
24610;BME280;12758;47.890;11.694;2022-08-14T11:43:47;93189.94;;;22.69;44.86
24610;BME280;12758;47.890;11.694;2022-08-14T11:46:14;93187.22;;;22.65;44.40
24610;BME280;12758;47.890;11.694;2022-08-14T11:48:45;93182.19;;;22.84;44.03
24610;BME280;12758;47.890;11.694;2022-08-14T11:51:13;93183.72;;;22.85;43.67
24610;BME280;12758;47.890;11.694;2022-08-14T11:53:39;93183.25;;;22.66;44.05
24610;BME280;12758;47.890;11.694;2022-08-14T11:56:07;93165.06;;;23.52;38.66
24610;BME280;12758;47.890;11.694;2022-08-14T11:58:35;93170.88;;;22.98;42.98
24610;BME280;12758;47.890;11.694;2022-08-14T12:01:03;93166.41;;;22.81;43.41
24610;BME280;12758;47.890;11.694;2022-08-14T12:03:35;93160.50;;;22.78;43.56
24610;BME280;12758;47.890;11.694;2022-08-14T12:06:06;93164.63;;;22.94;41.79
24610;BME280;12758;47.890;11.694;2022-08-14T12:08:33;93164.19;;;23.55;39.51
24610;BME280;12758;47.890;11.694;2022-08-14T12:11:00;93164.19;;;23.55;41.50
24610;BME280;12758;47.890;11.694;2022-08-14T12:13:28;93170.88;;;22.98;43.04
24610;BME280;12758;47.890;11.694;2022-08-14T12:15:58;93165.63;;;23.63;38.72
24610;BME280;12758;47.890;11.694;2022-08-14T12:18:29;93158.34;;;24.42;36.83
24610;BME280;12758;47.890;11.694;2022-08-14T12:20:57;93149.81;;;24.82;34.26
24610;BME280;12758;47.890;11.694;2022-08-14T12:23:24;93155.81;;;25.09;33.80
24610;BME280;12758;47.890;11.694;2022-08-14T12:26:01;93158.09;;;25.44;33.62
24610;BME280;12758;47.890;11.694;2022-08-14T12:28:27;93147.28;;;25.33;34.08
24610;BME280;12758;47.890;11.694;2022-08-14T12:30:53;93135.75;;;24.07;39.38
24610;BME280;12758;47.890;11.694;2022-08-14T12:33:21;93136.00;;;23.60;40.89
24610;BME280;12758;47.890;11.694;2022-08-14T12:35:51;93134.38;;;24.64;34.82
24610;BME280;12758;47.890;11.694;2022-08-14T12:38:30;93132.72;;;24.83;38.03
24610;BME280;12758;47.890;11.694;2022-08-14T12:40:57;93140.53;;;26.27;32.26
24610;BME280;12758;47.890;11.694;2022-08-14T12:43:23;93137.28;;;24.90;37.50
24610;BME280;12758;47.890;11.694;2022-08-14T12:45:51;93134.75;;;24.67;35.01
24610;BME280;12758;47.890;11.694;2022-08-14T12:48:20;93132.28;;;24.36;38.09
24610;BME280;12758;47.890;11.694;2022-08-14T12:50:47;93131.25;;;24.30;36.33
24610;BME280;12758;47.890;11.694;2022-08-14T12:53:16;93134.78;;;25.25;33.06